Terminal Aerodrome Forecast
Issued by NWS Rapid City, SD

Home | Current Version | Previous Version | Graphics & Text | Print | Product List | Glossary On
Versions: 1 2 3 4 5 6 7 8 9 10 11 12 13 14
105
FTUS43 KUNR 062256 AAB
TAFRAP
TAF AMD
KRAP 062256Z 0623/0718 34020KT P6SM BKN150
     FM070000 33035G50KT P6SM BKN100
     FM070200 33020G30KT P6SM BKN100
     FM071500 32040G55KT P6SM FEW150=

USA.gov is the U.S. government's official web portal to all federal, state and local government web resources and services.